Shell River, Minnesota
Current Conditions -  °F | °C
As of 1:53 PM on Monday 26 Jan 2015 (Local Time) from KPKD Reporting Station
Overcast Overcast  
Wind Chill: 28°   Ceiling: 2500
Heat Index: 38°   Visibility: 10mi
Dew Point: 29°   Wind: 21mph
Humidity: 70%   Direction: 330°NNW
Pressure: 29.74"   Gusts: 29mph
Location:  46.7591°N, 94.9748°W
Report Text: KPKD 261953Z AUTO 33018G25KT 10SM OVC025 03/M02 A2974 RMK AO2 PK WND 33032/1854 SLP089 T00331017
Loading
Personal Weather Stations






























Interactive Weather Map New forecast layout! Learn more

10-Day Weather Forecast

Advertisements
Track Severe Weather on mobile